createdAt,value
2019-05-11T00:00:37.506Z,1.12
2019-05-11T00:03:06.460Z,1.55
2019-05-11T00:05:35.384Z,1.22
2019-05-11T00:08:04.349Z,1.77
2019-05-11T00:10:33.271Z,1.50
2019-05-11T00:13:02.274Z,1.80
2019-05-11T00:15:31.319Z,1.52
2019-05-11T00:18:00.271Z,1.40
2019-05-11T00:20:29.235Z,1.42
2019-05-11T00:22:58.168Z,1.60
2019-05-11T00:25:27.139Z,1.22
2019-05-11T00:27:56.074Z,1.32
2019-05-11T00:30:25.047Z,1.62
2019-05-11T00:32:54.023Z,1.52
2019-05-11T00:35:23.076Z,1.55
2019-05-11T00:37:52.083Z,1.80
2019-05-11T00:40:21.051Z,1.87
2019-05-11T00:42:49.971Z,1.67
2019-05-11T00:45:18.954Z,2.10
2019-05-11T00:47:47.868Z,2.10
2019-05-11T00:50:16.842Z,1.98
2019-05-11T00:52:45.766Z,2.10
2019-05-11T00:55:14.724Z,2.00
2019-05-11T00:57:43.650Z,2.10
2019-05-11T01:00:12.915Z,2.45
2019-05-11T01:02:41.867Z,2.45
2019-05-11T01:05:11.439Z,2.25
2019-05-11T01:07:40.361Z,2.17
2019-05-11T01:10:23.107Z,2.65
2019-05-11T01:12:40.115Z,2.17
2019-05-11T01:15:09.576Z,1.87
2019-05-11T01:17:38.502Z,1.82
2019-05-11T01:20:07.877Z,1.50
2019-05-11T01:22:36.802Z,1.67
2019-05-11T01:25:06.577Z,1.32
2019-05-11T01:27:35.536Z,1.10
2019-05-11T01:30:06.432Z,1.20
2019-05-11T01:32:35.402Z,1.35
2019-05-11T01:35:05.795Z,1.17
2019-05-11T01:37:34.759Z,1.15
2019-05-11T01:40:05.381Z,1.10
2019-05-11T01:42:34.356Z,1.30
2019-05-11T01:45:03.372Z,1.30
2019-05-11T01:47:32.334Z,1.47
2019-05-11T01:50:01.261Z,1.27
2019-05-11T01:52:30.239Z,1.45
2019-05-11T01:54:59.115Z,1.15
2019-05-11T01:57:28.055Z,1.07
2019-05-11T01:59:56.970Z,0.90
2019-05-11T02:02:25.905Z,1.20
2019-05-11T02:05:13.012Z,1.02
2019-05-11T02:07:41.951Z,0.85
2019-05-11T02:10:11.138Z,1.05
2019-05-11T02:12:40.086Z,1.05
2019-05-11T02:15:09.081Z,1.00
2019-05-11T02:17:38.018Z,1.15
2019-05-11T02:20:07.085Z,1.10
2019-05-11T02:22:36.030Z,1.10
2019-05-11T02:25:07.003Z,0.80
2019-05-11T02:27:35.937Z,0.93
2019-05-11T02:30:06.417Z,1.30
2019-05-11T02:32:35.356Z,1.30
2019-05-11T02:35:06.702Z,1.27
2019-05-11T02:37:35.743Z,1.25
2019-05-11T02:40:09.253Z,1.50
2019-05-11T02:42:38.257Z,1.65
2019-05-11T02:45:08.641Z,1.30
2019-05-11T02:47:37.572Z,1.20
2019-05-11T02:50:06.708Z,1.20
2019-05-11T02:52:36.688Z,1.20
2019-05-11T02:55:06.534Z,1.42
2019-05-11T02:57:35.418Z,1.30
2019-05-11T03:00:06.822Z,1.10
2019-05-11T03:02:35.722Z,1.12
2019-05-11T03:05:07.314Z,1.30
2019-05-11T03:07:36.211Z,1.20
2019-05-11T03:10:06.039Z,1.37
2019-05-11T03:12:34.926Z,1.20
2019-05-11T03:15:04.855Z,1.05
2019-05-11T03:17:34.242Z,1.20
2019-05-11T03:20:03.174Z,1.30
2019-05-11T03:22:32.056Z,1.27
2019-05-11T03:25:00.989Z,1.10
2019-05-11T03:27:29.874Z,1.30
2019-05-11T03:30:01.172Z,1.07
2019-05-11T03:32:29.329Z,1.05
2019-05-11T03:34:58.274Z,0.82
2019-05-11T03:37:27.246Z,0.90
2019-05-11T03:39:56.184Z,1.30
2019-05-11T03:42:25.074Z,1.30
2019-05-11T03:44:54.002Z,0.80
2019-05-11T03:47:22.940Z,0.90
2019-05-11T03:49:51.823Z,1.00
2019-05-11T03:52:20.745Z,0.98
2019-05-11T03:54:49.625Z,1.05
2019-05-11T03:57:18.563Z,0.80
2019-05-11T03:59:47.450Z,1.00
2019-05-11T04:02:16.404Z,1.02
2019-05-11T04:04:45.304Z,0.95
2019-05-11T04:07:14.222Z,0.98
2019-05-11T04:09:43.997Z,1.00
2019-05-11T04:12:12.941Z,1.00
2019-05-11T04:14:41.840Z,0.75
2019-05-11T04:17:10.773Z,0.90
2019-05-11T04:19:39.665Z,1.05
2019-05-11T04:22:08.592Z,0.80
2019-05-11T04:24:37.516Z,0.82
2019-05-11T04:27:09.181Z,0.90
2019-05-11T04:29:38.119Z,0.80
2019-05-11T04:32:07.056Z,0.95
2019-05-11T04:34:35.928Z,0.80
2019-05-11T04:37:04.871Z,0.90
2019-05-11T04:39:33.766Z,1.55
2019-05-11T04:42:02.783Z,1.30
2019-05-11T04:44:31.670Z,1.50
2019-05-11T04:47:00.613Z,1.30
2019-05-11T04:49:29.550Z,1.80
2019-05-11T04:51:58.467Z,1.35
2019-05-11T04:54:27.401Z,1.52
2019-05-11T04:56:56.272Z,1.60
2019-05-11T04:59:25.214Z,1.32
2019-05-11T05:01:54.101Z,1.47
2019-05-11T05:04:23.046Z,1.50
2019-05-11T05:06:59.573Z,1.75
2019-05-11T05:09:22.668Z,1.50
2019-05-11T05:11:51.771Z,1.57
2019-05-11T05:14:20.720Z,1.45
2019-05-11T05:16:49.605Z,1.42
2019-05-11T05:19:18.548Z,2.00
2019-05-11T05:21:47.427Z,1.32
2019-05-11T05:24:16.371Z,1.85
2019-05-11T05:26:45.256Z,1.65
2019-05-11T05:29:14.187Z,1.80
2019-05-11T05:31:43.066Z,2.17
2019-05-11T05:34:12.005Z,2.15
2019-05-11T05:36:40.881Z,2.72
2019-05-11T05:39:09.822Z,4.08
2019-05-11T05:41:38.823Z,2.92
2019-05-11T05:44:07.818Z,3.33
2019-05-11T05:46:36.745Z,2.92
2019-05-11T05:49:05.621Z,3.22
2019-05-11T05:51:34.544Z,2.35
2019-05-11T05:54:03.428Z,2.95
2019-05-11T05:56:32.360Z,2.80
2019-05-11T05:59:01.311Z,2.72
2019-05-11T06:01:30.421Z,2.08
2019-05-11T06:03:59.281Z,2.12
2019-05-11T06:06:29.832Z,2.95
2019-05-11T06:08:58.696Z,2.85
2019-05-11T06:11:27.611Z,2.45
2019-05-11T06:13:56.496Z,1.80
2019-05-11T06:16:25.421Z,1.90
2019-05-11T06:18:54.304Z,2.40
2019-05-11T06:21:23.250Z,1.60
2019-05-11T06:23:52.120Z,2.37
2019-05-11T06:26:40.346Z,2.30
2019-05-11T06:29:13.704Z,2.00
2019-05-11T06:31:41.514Z,1.67
2019-05-11T06:34:10.399Z,1.65
2019-05-11T06:36:39.372Z,2.52
2019-05-11T06:39:08.677Z,1.27
2019-05-11T06:41:38.227Z,1.02
2019-05-11T06:44:07.131Z,1.00
2019-05-11T06:46:36.061Z,1.10
2019-05-11T06:49:05.048Z,1.32
2019-05-11T06:51:33.936Z,1.22
2019-05-11T06:54:02.856Z,0.90
2019-05-11T06:56:31.734Z,1.00
2019-05-11T06:59:00.664Z,0.93
2019-05-11T07:01:29.554Z,1.80
2019-05-11T07:03:58.485Z,0.90
2019-05-11T07:06:30.470Z,0.65
2019-05-11T07:08:57.939Z,0.60
2019-05-11T07:11:26.860Z,0.85
2019-05-11T07:13:55.790Z,0.70
2019-05-11T07:16:24.844Z,0.60
2019-05-11T07:18:53.777Z,0.60
2019-05-11T07:21:22.649Z,0.90
2019-05-11T07:23:51.695Z,0.90
2019-05-11T07:26:20.575Z,0.95
2019-05-11T07:28:49.509Z,0.80
2019-05-11T07:31:18.394Z,0.80
2019-05-11T07:33:48.641Z,0.70
2019-05-11T07:36:17.860Z,0.80
2019-05-11T07:38:48.699Z,0.78
2019-05-11T07:41:17.876Z,0.90
2019-05-11T07:43:48.492Z,0.65
2019-05-11T07:46:18.196Z,0.80
2019-05-11T07:48:48.054Z,0.80
2019-05-11T07:51:18.318Z,0.70
2019-05-11T07:53:48.629Z,0.80
2019-05-11T07:56:18.699Z,0.90
2019-05-11T07:58:48.276Z,0.80
2019-05-11T08:01:18.833Z,0.75
2019-05-11T08:03:50.025Z,0.90
2019-05-11T08:06:19.502Z,0.70
2019-05-11T08:08:49.180Z,0.80
2019-05-11T08:11:18.544Z,0.93
2019-05-11T08:13:48.208Z,1.10
2019-05-11T08:16:18.572Z,1.17
2019-05-11T08:18:48.310Z,0.82
2019-05-11T08:21:19.938Z,0.90
2019-05-11T08:23:48.884Z,0.80
2019-05-11T08:26:19.060Z,1.00
2019-05-11T08:28:48.734Z,0.88
2019-05-11T08:31:18.685Z,0.82
2019-05-11T08:33:48.173Z,1.00
2019-05-11T08:36:18.342Z,1.02
2019-05-11T08:38:48.235Z,0.80
2019-05-11T08:41:18.497Z,1.00
2019-05-11T08:43:48.183Z,0.75
2019-05-11T08:46:18.554Z,0.70
2019-05-11T08:48:47.948Z,0.80
2019-05-11T08:51:18.743Z,0.70
2019-05-11T08:53:48.142Z,1.00
2019-05-11T08:56:18.938Z,0.90
2019-05-11T08:58:49.176Z,1.00
2019-05-11T09:01:18.608Z,0.90
2019-05-11T09:03:48.008Z,1.00
2019-05-11T09:06:17.911Z,0.80
2019-05-11T09:08:49.371Z,0.90
2019-05-11T09:11:18.988Z,0.90
2019-05-11T09:13:48.943Z,0.80
2019-05-11T09:16:19.056Z,1.00
2019-05-11T09:18:48.317Z,0.82
2019-05-11T09:21:19.055Z,1.10
2019-05-11T09:23:48.542Z,0.72
2019-05-11T09:26:18.348Z,0.70
2019-05-11T09:28:47.773Z,0.70
2019-05-11T09:31:18.822Z,0.95
2019-05-11T09:33:47.941Z,0.68
2019-05-11T09:36:18.065Z,0.60
2019-05-11T09:38:49.048Z,0.80
2019-05-11T09:41:18.245Z,0.68
2019-05-11T09:43:48.376Z,0.82
2019-05-11T09:46:18.824Z,3.90
2019-05-11T09:48:48.493Z,1.00
2019-05-11T09:51:18.427Z,0.53
2019-05-11T09:53:48.409Z,0.68
2019-05-11T09:56:18.345Z,0.68
2019-05-11T09:58:49.120Z,0.60
2019-05-11T10:01:18.415Z,0.60
2019-05-11T10:03:48.322Z,0.60
2019-05-11T10:06:18.962Z,0.60
2019-05-11T10:08:48.963Z,1.10
2019-05-11T10:11:21.280Z,3.50
2019-05-11T10:13:57.823Z,0.60
2019-05-11T10:16:33.952Z,1.47
2019-05-11T10:19:08.283Z,0.80
2019-05-11T10:21:38.450Z,0.62
2019-05-11T10:24:08.565Z,1.07
2019-05-11T10:26:45.178Z,1.62
2019-05-11T10:29:14.884Z,0.80
2019-05-11T10:31:43.913Z,0.60
2019-05-11T10:34:12.889Z,0.53
2019-05-11T10:36:41.820Z,0.55
2019-05-11T10:39:10.752Z,0.50
2019-05-11T10:41:44.273Z,0.47
2019-05-11T10:44:18.595Z,0.68
2019-05-11T10:46:48.357Z,0.50
2019-05-11T10:49:22.768Z,0.60
2019-05-11T10:51:58.666Z,0.60
2019-05-11T10:54:31.991Z,0.50
2019-05-11T10:57:02.419Z,0.60
2019-05-11T10:59:35.733Z,0.47
2019-05-11T11:02:10.216Z,0.60
2019-05-11T11:04:43.506Z,3.02
2019-05-11T11:09:43.654Z,0.57
2019-05-11T11:12:12.673Z,0.50
2019-05-11T11:14:42.833Z,0.60
2019-05-11T11:17:15.143Z,0.40
2019-05-11T11:19:58.037Z,0.57
2019-05-11T11:22:39.041Z,0.50
2019-05-11T11:24:58.915Z,0.78
2019-05-11T11:27:29.155Z,1.80
2019-05-11T11:29:58.384Z,0.45
2019-05-11T11:32:27.974Z,0.70
2019-05-11T11:34:58.737Z,0.50
2019-05-11T11:37:31.595Z,0.65
2019-05-11T11:40:02.448Z,0.55
2019-05-11T11:42:31.716Z,0.42
2019-05-11T11:45:00.599Z,0.60
2019-05-11T11:47:29.542Z,0.98
2019-05-11T11:49:58.568Z,0.45
2019-05-11T11:52:32.111Z,0.60
2019-05-11T11:55:08.103Z,0.40
2019-05-11T11:57:37.999Z,0.70
2019-05-11T12:00:11.505Z,0.80
2019-05-11T12:02:45.885Z,0.70
2019-05-11T12:05:20.915Z,0.60
2019-05-11T12:07:50.298Z,0.90
2019-05-11T12:10:19.375Z,0.82
2019-05-11T12:12:48.311Z,1.10
2019-05-11T12:15:17.795Z,1.47
2019-05-11T12:17:48.257Z,1.15
2019-05-11T12:20:18.342Z,0.80
2019-05-11T12:22:47.658Z,1.02
2019-05-11T12:25:18.536Z,1.30
2019-05-11T12:27:49.059Z,1.20
2019-05-11T12:30:18.148Z,1.12
2019-05-11T12:32:48.930Z,1.55
2019-05-11T12:35:18.379Z,2.17
2019-05-11T12:37:48.425Z,1.00
2019-05-11T12:40:18.196Z,0.85
2019-05-11T12:42:48.865Z,0.88
2019-05-11T12:45:19.525Z,0.60
2019-05-11T12:47:50.274Z,0.60
2019-05-11T12:50:22.276Z,0.80
2019-05-11T12:52:51.371Z,0.90
2019-05-11T12:55:20.899Z,0.70
2019-05-11T12:57:49.788Z,0.45
2019-05-11T13:00:18.935Z,0.45
2019-05-11T13:02:48.465Z,0.50
2019-05-11T13:05:18.144Z,0.40
2019-05-11T13:07:48.094Z,0.30
2019-05-11T13:10:17.970Z,0.60
2019-05-11T13:12:49.025Z,0.60
2019-05-11T13:15:17.848Z,3.02
2019-05-11T13:17:48.978Z,0.70
2019-05-11T13:20:18.080Z,0.45
2019-05-11T13:22:48.847Z,0.40
2019-05-11T13:25:17.813Z,0.37
2019-05-11T13:27:48.930Z,0.30
2019-05-11T13:30:18.435Z,0.50
2019-05-11T13:32:49.021Z,0.35
2019-05-11T13:35:18.191Z,0.47
2019-05-11T13:37:47.934Z,0.35
2019-05-11T13:40:18.515Z,0.40
2019-05-11T13:42:48.905Z,1.20
2019-05-11T13:45:18.761Z,0.60
2019-05-11T13:47:52.586Z,0.37
2019-05-11T13:50:18.258Z,0.50
2019-05-11T13:52:47.821Z,0.40
2019-05-11T13:55:18.203Z,0.50
2019-05-11T13:57:48.531Z,0.40
2019-05-11T14:00:18.304Z,0.20
2019-05-11T14:02:48.502Z,0.20
2019-05-11T14:05:18.146Z,0.25
2019-05-11T14:07:48.345Z,0.23
2019-05-11T14:10:18.225Z,1.70
2019-05-11T14:12:47.798Z,0.20
2019-05-11T14:15:18.856Z,0.30
2019-05-11T14:17:48.763Z,0.40
2019-05-11T14:20:19.796Z,0.35
2019-05-11T14:22:48.737Z,0.40
2019-05-11T14:25:18.567Z,0.30
2019-05-11T14:27:48.111Z,0.30
2019-05-11T14:30:19.057Z,0.40
2019-05-11T14:32:47.882Z,0.50
2019-05-11T14:35:18.815Z,0.50
2019-05-11T14:37:48.694Z,0.50
2019-05-11T14:40:17.993Z,0.30
2019-05-11T14:42:48.925Z,0.33
2019-05-11T14:45:18.741Z,0.33
2019-05-11T14:47:47.950Z,0.20
2019-05-11T14:50:18.858Z,0.40
2019-05-11T14:52:49.046Z,0.20
2019-05-11T14:55:18.538Z,0.10
2019-05-11T14:57:48.573Z,0.25
2019-05-11T15:00:18.567Z,0.30
2019-05-11T15:02:50.081Z,0.30
2019-05-11T15:05:20.958Z,0.30
2019-05-11T15:07:52.430Z,0.30
2019-05-11T15:10:21.709Z,0.20
2019-05-11T15:12:50.588Z,0.20
2019-05-11T15:15:19.920Z,0.25
2019-05-11T15:17:49.483Z,0.30
2019-05-11T15:20:18.759Z,0.25
2019-05-11T15:22:48.883Z,0.20
2019-05-11T15:25:19.589Z,0.20
2019-05-11T15:27:49.072Z,0.20
2019-05-11T15:30:18.828Z,0.20
2019-05-11T15:32:48.298Z,0.30
2019-05-11T15:35:18.506Z,0.20
2019-05-11T15:37:48.366Z,0.20
2019-05-11T15:40:19.448Z,0.30
2019-05-11T15:42:48.819Z,0.30
2019-05-11T15:45:19.780Z,0.50
2019-05-11T15:47:49.044Z,0.30
2019-05-11T15:50:19.116Z,0.50
2019-05-11T15:52:48.971Z,0.37
2019-05-11T15:55:19.204Z,0.47
2019-05-11T15:57:48.575Z,0.50
2019-05-11T16:00:18.444Z,0.42
2019-05-11T16:02:49.075Z,0.40
2019-05-11T16:05:18.506Z,0.40
2019-05-11T16:07:49.247Z,0.40
2019-05-11T16:10:18.931Z,0.40
2019-05-11T16:12:48.810Z,0.60
2019-05-11T16:15:19.283Z,0.40
2019-05-11T16:17:48.884Z,0.30
2019-05-11T16:20:18.598Z,0.30
2019-05-11T16:22:48.014Z,0.40
2019-05-11T16:25:19.871Z,0.35
2019-05-11T16:27:47.847Z,0.88
2019-05-11T16:30:20.847Z,0.40
2019-05-11T16:32:48.169Z,0.33
2019-05-11T16:35:17.992Z,0.40
2019-05-11T16:37:48.694Z,0.50
2019-05-11T16:40:20.290Z,0.42
2019-05-11T16:42:48.387Z,0.33
2019-05-11T16:45:18.907Z,0.30
2019-05-11T16:47:48.558Z,0.40
2019-05-11T16:50:38.372Z,0.40
2019-05-11T16:53:07.497Z,0.30
2019-05-11T16:55:37.718Z,0.30
2019-05-11T16:58:08.209Z,0.40
2019-05-11T17:00:39.340Z,0.30
2019-05-11T17:03:07.918Z,0.40
2019-05-11T17:05:38.234Z,0.40
2019-05-11T17:08:08.110Z,0.50
2019-05-11T17:10:37.235Z,0.45
2019-05-11T17:13:08.435Z,0.35
2019-05-11T17:15:36.713Z,0.35
2019-05-11T17:18:07.908Z,0.30
2019-05-11T17:20:36.197Z,0.37
2019-05-11T17:23:05.121Z,0.40
2019-05-11T17:25:34.043Z,0.40
2019-05-11T17:28:02.980Z,0.30
2019-05-11T17:30:31.859Z,0.37
2019-05-11T17:33:00.822Z,0.30
2019-05-11T17:35:29.706Z,0.30
2019-05-11T17:37:58.798Z,0.40
2019-05-11T17:40:28.505Z,0.30
2019-05-11T17:42:58.496Z,0.40
2019-05-11T17:45:27.736Z,0.25
2019-05-11T17:47:59.921Z,0.30
2019-05-11T17:50:31.709Z,0.20
2019-05-11T17:53:01.689Z,0.65
2019-05-11T17:55:32.053Z,0.40
2019-05-11T17:58:02.305Z,0.33
2019-05-11T18:00:34.664Z,0.30
2019-05-11T18:03:07.244Z,0.40
2019-05-11T18:05:37.975Z,0.42
2019-05-11T18:08:10.091Z,0.40
2019-05-11T18:10:38.912Z,0.37
2019-05-11T18:13:08.820Z,0.40
2019-05-11T18:15:39.094Z,0.30
2019-05-11T18:18:09.638Z,0.40
2019-05-11T18:20:39.226Z,0.40
2019-05-11T18:23:09.096Z,0.40
2019-05-11T18:25:39.163Z,0.40
2019-05-11T18:28:09.199Z,0.40
2019-05-11T18:30:39.198Z,0.57
2019-05-11T18:33:13.129Z,0.50
2019-05-11T18:35:43.133Z,0.40
2019-05-11T18:38:13.505Z,0.72
2019-05-11T18:40:43.474Z,0.50
2019-05-11T18:43:12.848Z,0.33
2019-05-11T18:45:42.325Z,0.40
2019-05-11T18:48:11.550Z,0.60
2019-05-11T18:50:41.096Z,0.30
2019-05-11T18:53:11.441Z,0.40
2019-05-11T18:55:40.553Z,0.30
2019-05-11T18:58:09.937Z,0.40
2019-05-11T19:00:39.137Z,0.40
2019-05-11T19:03:10.181Z,0.60
2019-05-11T19:05:40.461Z,1.02
2019-05-11T19:08:09.607Z,0.30
2019-05-11T19:10:39.096Z,0.20
2019-05-11T19:13:10.545Z,0.20
2019-05-11T19:15:39.941Z,0.20
2019-05-11T19:18:09.569Z,0.28
2019-05-11T19:20:45.920Z,0.20
2019-05-11T19:23:10.909Z,0.20
2019-05-11T19:25:48.058Z,0.30
2019-05-11T19:28:18.492Z,0.30
2019-05-11T19:30:48.777Z,0.40
2019-05-11T19:33:19.159Z,0.20
2019-05-11T19:35:49.559Z,0.30
2019-05-11T19:38:19.086Z,0.20
2019-05-11T19:40:48.593Z,0.30
2019-05-11T19:43:19.703Z,0.60
2019-05-11T19:45:51.194Z,0.20
2019-05-11T19:48:20.639Z,0.25
2019-05-11T19:51:03.316Z,0.20
2019-05-11T19:53:20.759Z,0.20
2019-05-11T19:55:49.814Z,0.20
2019-05-11T19:58:19.430Z,0.30
2019-05-11T20:00:48.897Z,0.20
2019-05-11T20:03:18.359Z,0.23
2019-05-11T20:05:48.524Z,0.20
2019-05-11T20:08:18.392Z,0.30
2019-05-11T20:10:48.667Z,0.20
2019-05-11T20:13:18.236Z,0.30
2019-05-11T20:15:48.506Z,0.25
2019-05-11T20:18:18.349Z,3.17
2019-05-11T20:20:48.061Z,0.30
2019-05-11T20:23:17.107Z,0.37
2019-05-11T20:25:47.798Z,0.40
2019-05-11T20:28:18.190Z,0.20
2019-05-11T20:30:48.278Z,0.20
2019-05-11T20:33:18.925Z,0.40
2019-05-11T20:35:48.821Z,0.40
2019-05-11T20:38:18.715Z,0.40
2019-05-11T20:40:48.543Z,0.20
2019-05-11T20:43:18.542Z,0.30
2019-05-11T20:45:48.607Z,0.30
2019-05-11T20:48:18.431Z,0.20
2019-05-11T20:50:48.355Z,0.28
2019-05-11T20:53:18.055Z,0.20
2019-05-11T20:55:47.798Z,0.30
2019-05-11T20:58:18.802Z,0.40
2019-05-11T21:00:49.095Z,0.30
2019-05-11T21:03:18.282Z,0.33
2019-05-11T21:05:48.211Z,0.30
2019-05-11T21:08:17.709Z,0.30
2019-05-11T21:10:48.831Z,0.40
2019-05-11T21:13:17.898Z,0.70
2019-05-11T21:15:51.136Z,0.30
2019-05-11T21:18:21.996Z,0.30
2019-05-11T21:20:52.369Z,0.20
2019-05-11T21:23:21.267Z,0.20
2019-05-11T21:25:50.199Z,0.28
2019-05-11T21:28:19.291Z,0.30
2019-05-11T21:30:48.268Z,0.40
2019-05-11T21:33:17.930Z,0.40
2019-05-11T21:35:48.954Z,0.40
2019-05-11T21:38:19.503Z,0.40
2019-05-11T21:40:48.632Z,0.40
2019-05-11T21:43:17.639Z,0.45
2019-05-11T21:45:47.317Z,0.40
2019-05-11T21:48:17.516Z,0.30
2019-05-11T21:50:46.467Z,0.40
2019-05-11T21:53:15.375Z,0.50
2019-05-11T21:55:49.794Z,0.40
2019-05-11T21:58:18.708Z,0.40
2019-05-11T22:00:51.316Z,0.30
2019-05-11T22:03:20.384Z,0.30
2019-05-11T22:05:49.327Z,0.40
2019-05-11T22:08:21.055Z,0.35
2019-05-11T22:10:50.413Z,0.40
2019-05-11T22:13:20.617Z,0.40
2019-05-11T22:15:52.226Z,0.50
2019-05-11T22:18:30.863Z,0.40
2019-05-11T22:20:51.703Z,0.50
2019-05-11T22:23:20.615Z,0.50
2019-05-11T22:25:50.555Z,1.05
2019-05-11T22:28:19.651Z,0.50
2019-05-11T22:30:48.697Z,0.75
2019-05-11T22:33:17.790Z,0.60
2019-05-11T22:35:48.435Z,0.60
2019-05-11T22:38:17.362Z,0.70
2019-05-11T22:40:48.660Z,0.62
2019-05-11T22:43:18.160Z,0.60
2019-05-11T22:45:48.600Z,0.68
2019-05-11T22:48:17.659Z,0.78
2019-05-11T22:50:48.087Z,0.70
2019-05-11T22:53:19.158Z,0.80
2019-05-11T22:55:48.520Z,0.60
2019-05-11T22:58:21.948Z,0.72
2019-05-11T23:03:22.772Z,0.98
2019-05-11T23:05:52.811Z,0.90
2019-05-11T23:08:23.719Z,1.00
2019-05-11T23:10:53.858Z,1.00
2019-05-11T23:13:22.737Z,1.10
2019-05-11T23:15:53.034Z,1.20
2019-05-11T23:18:24.623Z,1.32
2019-05-11T23:20:55.238Z,1.22
2019-05-11T23:23:25.694Z,1.50
2019-05-11T23:25:55.278Z,1.92
2019-05-11T23:28:28.765Z,2.20
2019-05-11T23:30:58.346Z,1.85
2019-05-11T23:33:28.001Z,1.90
2019-05-11T23:35:58.769Z,2.20
2019-05-11T23:38:28.176Z,1.65
2019-05-11T23:40:58.719Z,1.77
2019-05-11T23:43:29.985Z,2.17
2019-05-11T23:45:58.461Z,1.92
2019-05-11T23:48:27.967Z,2.20
2019-05-11T23:50:58.011Z,2.20
2019-05-11T23:53:28.270Z,2.47
2019-05-11T23:55:57.927Z,2.47
2019-05-11T23:58:28.131Z,3.10
